sensor_id;sensor_type;location;lat;lon;timestamp;P1;durP1;ratioP1;P2;durP2;ratioP2
26696;SDS011;14312;52.614;13.496;2023-07-22T00:01:12;1.92;;;1.83;;
26696;SDS011;14312;52.614;13.496;2023-07-22T00:03:58;1.90;;;1.80;;
26696;SDS011;14312;52.614;13.496;2023-07-22T00:06:44;2.28;;;2.08;;
26696;SDS011;14312;52.614;13.496;2023-07-22T00:09:32;1.95;;;1.85;;
26696;SDS011;14312;52.614;13.496;2023-07-22T00:12:19;1.90;;;1.80;;
26696;SDS011;14312;52.614;13.496;2023-07-22T00:15:05;2.00;;;1.90;;
26696;SDS011;14312;52.614;13.496;2023-07-22T00:17:51;3.70;;;2.10;;
26696;SDS011;14312;52.614;13.496;2023-07-22T00:20:37;2.10;;;1.90;;
26696;SDS011;14312;52.614;13.496;2023-07-22T00:23:23;1.80;;;1.60;;
26696;SDS011;14312;52.614;13.496;2023-07-22T00:26:09;2.05;;;1.85;;
26696;SDS011;14312;52.614;13.496;2023-07-22T00:28:55;1.95;;;1.75;;
26696;SDS011;14312;52.614;13.496;2023-07-22T00:31:42;2.20;;;2.00;;
26696;SDS011;14312;52.614;13.496;2023-07-22T00:34:28;2.40;;;2.10;;
26696;SDS011;14312;52.614;13.496;2023-07-22T00:37:14;2.70;;;2.15;;
26696;SDS011;14312;52.614;13.496;2023-07-22T00:40:00;2.17;;;1.98;;
26696;SDS011;14312;52.614;13.496;2023-07-22T00:42:51;2.40;;;2.20;;
26696;SDS011;14312;52.614;13.496;2023-07-22T00:45:37;1.95;;;1.83;;
26696;SDS011;14312;52.614;13.496;2023-07-22T00:48:23;2.10;;;2.00;;
26696;SDS011;14312;52.614;13.496;2023-07-22T00:51:09;2.00;;;1.90;;
26696;SDS011;14312;52.614;13.496;2023-07-22T00:53:55;2.15;;;1.95;;
26696;SDS011;14312;52.614;13.496;2023-07-22T00:56:41;1.98;;;1.88;;
26696;SDS011;14312;52.614;13.496;2023-07-22T00:59:29;2.60;;;2.40;;
26696;SDS011;14312;52.614;13.496;2023-07-22T01:02:15;2.15;;;2.00;;
26696;SDS011;14312;52.614;13.496;2023-07-22T01:05:03;2.03;;;1.90;;
26696;SDS011;14312;52.614;13.496;2023-07-22T01:07:50;2.22;;;1.90;;
26696;SDS011;14312;52.614;13.496;2023-07-22T01:10:36;2.03;;;1.92;;
26696;SDS011;14312;52.614;13.496;2023-07-22T01:13:22;1.92;;;1.83;;
26696;SDS011;14312;52.614;13.496;2023-07-22T01:16:08;2.70;;;2.50;;
26696;SDS011;14312;52.614;13.496;2023-07-22T01:18:54;2.42;;;2.22;;
26696;SDS011;14312;52.614;13.496;2023-07-22T01:21:40;2.33;;;2.13;;
26696;SDS011;14312;52.614;13.496;2023-07-22T01:24:31;2.30;;;2.10;;
26696;SDS011;14312;52.614;13.496;2023-07-22T01:27:17;3.65;;;2.60;;
26696;SDS011;14312;52.614;13.496;2023-07-22T01:30:03;1.95;;;1.85;;
26696;SDS011;14312;52.614;13.496;2023-07-22T01:32:49;2.20;;;1.92;;
26696;SDS011;14312;52.614;13.496;2023-07-22T01:35:35;2.33;;;2.13;;
26696;SDS011;14312;52.614;13.496;2023-07-22T01:38:22;2.45;;;2.25;;
26696;SDS011;14312;52.614;13.496;2023-07-22T01:41:08;2.35;;;2.15;;
26696;SDS011;14312;52.614;13.496;2023-07-22T01:43:53;2.20;;;2.10;;
26696;SDS011;14312;52.614;13.496;2023-07-22T01:46:40;2.60;;;2.40;;
26696;SDS011;14312;52.614;13.496;2023-07-22T01:49:26;2.30;;;2.10;;
26696;SDS011;14312;52.614;13.496;2023-07-22T01:52:12;2.20;;;2.00;;
26696;SDS011;14312;52.614;13.496;2023-07-22T01:54:57;2.35;;;2.17;;
26696;SDS011;14312;52.614;13.496;2023-07-22T01:57:43;2.20;;;2.10;;
26696;SDS011;14312;52.614;13.496;2023-07-22T02:00:29;2.00;;;1.90;;
26696;SDS011;14312;52.614;13.496;2023-07-22T02:03:15;2.58;;;1.80;;
26696;SDS011;14312;52.614;13.496;2023-07-22T02:06:02;2.10;;;2.00;;
26696;SDS011;14312;52.614;13.496;2023-07-22T02:08:48;2.65;;;2.15;;
26696;SDS011;14312;52.614;13.496;2023-07-22T02:11:35;2.85;;;2.10;;
26696;SDS011;14312;52.614;13.496;2023-07-22T02:14:21;3.72;;;2.45;;
26696;SDS011;14312;52.614;13.496;2023-07-22T02:17:07;2.22;;;2.05;;
26696;SDS011;14312;52.614;13.496;2023-07-22T02:19:55;2.55;;;2.35;;
26696;SDS011;14312;52.614;13.496;2023-07-22T02:22:41;2.00;;;1.88;;
26696;SDS011;14312;52.614;13.496;2023-07-22T02:25:26;2.47;;;2.28;;
26696;SDS011;14312;52.614;13.496;2023-07-22T02:28:12;2.10;;;2.00;;
26696;SDS011;14312;52.614;13.496;2023-07-22T02:31:00;2.63;;;2.42;;
26696;SDS011;14312;52.614;13.496;2023-07-22T02:33:48;2.47;;;2.28;;
26696;SDS011;14312;52.614;13.496;2023-07-22T02:36:34;2.45;;;2.17;;
26696;SDS011;14312;52.614;13.496;2023-07-22T02:39:20;2.28;;;2.17;;
26696;SDS011;14312;52.614;13.496;2023-07-22T02:42:06;2.35;;;2.13;;
26696;SDS011;14312;52.614;13.496;2023-07-22T02:44:52;2.53;;;2.33;;
26696;SDS011;14312;52.614;13.496;2023-07-22T02:47:38;3.63;;;2.45;;
26696;SDS011;14312;52.614;13.496;2023-07-22T02:50:24;2.55;;;2.38;;
26696;SDS011;14312;52.614;13.496;2023-07-22T02:53:11;1.95;;;1.85;;
26696;SDS011;14312;52.614;13.496;2023-07-22T02:55:56;2.13;;;2.00;;
26696;SDS011;14312;52.614;13.496;2023-07-22T02:58:42;2.55;;;2.35;;
26696;SDS011;14312;52.614;13.496;2023-07-22T03:01:29;3.03;;;2.60;;
26696;SDS011;14312;52.614;13.496;2023-07-22T03:04:15;2.42;;;2.25;;
26696;SDS011;14312;52.614;13.496;2023-07-22T03:07:01;1.92;;;1.83;;
26696;SDS011;14312;52.614;13.496;2023-07-22T03:09:47;3.75;;;2.00;;
26696;SDS011;14312;52.614;13.496;2023-07-22T03:12:33;2.30;;;2.15;;
26696;SDS011;14312;52.614;13.496;2023-07-22T03:15:19;2.00;;;1.90;;
26696;SDS011;14312;52.614;13.496;2023-07-22T03:18:06;2.00;;;1.90;;
26696;SDS011;14312;52.614;13.496;2023-07-22T03:20:52;2.70;;;2.10;;
26696;SDS011;14312;52.614;13.496;2023-07-22T03:23:38;2.55;;;2.35;;
26696;SDS011;14312;52.614;13.496;2023-07-22T03:26:25;2.10;;;2.00;;
26696;SDS011;14312;52.614;13.496;2023-07-22T03:29:11;2.28;;;2.08;;
26696;SDS011;14312;52.614;13.496;2023-07-22T03:31:57;2.03;;;1.83;;
26696;SDS011;14312;52.614;13.496;2023-07-22T03:34:43;1.95;;;1.83;;
26696;SDS011;14312;52.614;13.496;2023-07-22T03:37:30;2.05;;;1.95;;
26696;SDS011;14312;52.614;13.496;2023-07-22T03:40:15;1.95;;;1.85;;
26696;SDS011;14312;52.614;13.496;2023-07-22T03:43:12;1.60;;;1.50;;
26696;SDS011;14312;52.614;13.496;2023-07-22T03:45:58;2.22;;;2.00;;
26696;SDS011;14312;52.614;13.496;2023-07-22T03:48:43;1.80;;;1.70;;
26696;SDS011;14312;52.614;13.496;2023-07-22T03:51:30;2.10;;;1.90;;
26696;SDS011;14312;52.614;13.496;2023-07-22T03:54:16;2.28;;;2.08;;
26696;SDS011;14312;52.614;13.496;2023-07-22T03:57:02;2.53;;;1.80;;
26696;SDS011;14312;52.614;13.496;2023-07-22T03:59:48;1.85;;;1.75;;
26696;SDS011;14312;52.614;13.496;2023-07-22T04:02:34;2.00;;;1.80;;
26696;SDS011;14312;52.614;13.496;2023-07-22T04:05:21;2.20;;;2.00;;
26696;SDS011;14312;52.614;13.496;2023-07-22T04:08:06;2.20;;;2.00;;
26696;SDS011;14312;52.614;13.496;2023-07-22T04:10:53;2.13;;;1.98;;
26696;SDS011;14312;52.614;13.496;2023-07-22T04:13:39;1.80;;;1.70;;
26696;SDS011;14312;52.614;13.496;2023-07-22T04:16:25;1.70;;;1.60;;
26696;SDS011;14312;52.614;13.496;2023-07-22T04:19:11;1.80;;;1.70;;
26696;SDS011;14312;52.614;13.496;2023-07-22T04:21:57;2.00;;;1.90;;
26696;SDS011;14312;52.614;13.496;2023-07-22T04:24:43;2.10;;;1.90;;
26696;SDS011;14312;52.614;13.496;2023-07-22T04:27:29;1.77;;;1.67;;
26696;SDS011;14312;52.614;13.496;2023-07-22T04:30:15;1.75;;;1.65;;
26696;SDS011;14312;52.614;13.496;2023-07-22T04:33:06;1.73;;;1.63;;
26696;SDS011;14312;52.614;13.496;2023-07-22T04:35:56;1.80;;;1.70;;
26696;SDS011;14312;52.614;13.496;2023-07-22T04:38:43;1.90;;;1.80;;
26696;SDS011;14312;52.614;13.496;2023-07-22T04:41:28;1.88;;;1.75;;
26696;SDS011;14312;52.614;13.496;2023-07-22T04:44:14;2.67;;;2.47;;
26696;SDS011;14312;52.614;13.496;2023-07-22T04:47:00;2.00;;;1.90;;
26696;SDS011;14312;52.614;13.496;2023-07-22T04:49:46;2.05;;;1.80;;
26696;SDS011;14312;52.614;13.496;2023-07-22T04:52:32;2.28;;;2.08;;
26696;SDS011;14312;52.614;13.496;2023-07-22T04:55:18;2.10;;;1.90;;
26696;SDS011;14312;52.614;13.496;2023-07-22T04:58:04;2.17;;;2.08;;
26696;SDS011;14312;52.614;13.496;2023-07-22T05:00:50;2.20;;;2.00;;
26696;SDS011;14312;52.614;13.496;2023-07-22T05:03:37;2.47;;;2.28;;
26696;SDS011;14312;52.614;13.496;2023-07-22T05:06:23;2.30;;;2.10;;
26696;SDS011;14312;52.614;13.496;2023-07-22T05:09:10;3.13;;;2.85;;
26696;SDS011;14312;52.614;13.496;2023-07-22T05:11:56;2.97;;;2.65;;
26696;SDS011;14312;52.614;13.496;2023-07-22T05:14:42;2.60;;;2.40;;
26696;SDS011;14312;52.614;13.496;2023-07-22T05:17:28;2.70;;;2.47;;
26696;SDS011;14312;52.614;13.496;2023-07-22T05:20:16;2.90;;;2.70;;
26696;SDS011;14312;52.614;13.496;2023-07-22T05:23:03;2.20;;;2.05;;
26696;SDS011;14312;52.614;13.496;2023-07-22T05:25:52;3.35;;;3.05;;
26696;SDS011;14312;52.614;13.496;2023-07-22T05:28:39;3.90;;;3.50;;
26696;SDS011;14312;52.614;13.496;2023-07-22T05:31:24;3.25;;;2.90;;
26696;SDS011;14312;52.614;13.496;2023-07-22T05:34:10;4.10;;;3.40;;
26696;SDS011;14312;52.614;13.496;2023-07-22T05:36:56;3.42;;;2.80;;
26696;SDS011;14312;52.614;13.496;2023-07-22T05:39:42;3.00;;;2.70;;
26696;SDS011;14312;52.614;13.496;2023-07-22T05:42:28;3.55;;;3.03;;
26696;SDS011;14312;52.614;13.496;2023-07-22T05:45:15;3.22;;;2.90;;
26696;SDS011;14312;52.614;13.496;2023-07-22T05:48:01;3.75;;;3.22;;
26696;SDS011;14312;52.614;13.496;2023-07-22T05:50:47;3.58;;;3.20;;
26696;SDS011;14312;52.614;13.496;2023-07-22T05:53:33;6.13;;;4.38;;
26696;SDS011;14312;52.614;13.496;2023-07-22T05:56:19;3.83;;;3.35;;
26696;SDS011;14312;52.614;13.496;2023-07-22T05:59:05;3.90;;;3.60;;
26696;SDS011;14312;52.614;13.496;2023-07-22T06:01:51;4.25;;;3.85;;
26696;SDS011;14312;52.614;13.496;2023-07-22T06:04:37;3.47;;;3.17;;
26696;SDS011;14312;52.614;13.496;2023-07-22T06:07:24;3.83;;;3.50;;
26696;SDS011;14312;52.614;13.496;2023-07-22T06:10:11;3.70;;;3.40;;
26696;SDS011;14312;52.614;13.496;2023-07-22T06:12:57;3.75;;;3.45;;
26696;SDS011;14312;52.614;13.496;2023-07-22T06:15:43;3.63;;;3.33;;
26696;SDS011;14312;52.614;13.496;2023-07-22T06:18:28;5.35;;;3.90;;
26696;SDS011;14312;52.614;13.496;2023-07-22T06:21:15;4.78;;;3.22;;
26696;SDS011;14312;52.614;13.496;2023-07-22T06:24:01;3.17;;;2.88;;
26696;SDS011;14312;52.614;13.496;2023-07-22T06:26:47;4.57;;;3.78;;
26696;SDS011;14312;52.614;13.496;2023-07-22T06:29:32;4.75;;;3.33;;
26696;SDS011;14312;52.614;13.496;2023-07-22T06:32:18;4.05;;;3.22;;
26696;SDS011;14312;52.614;13.496;2023-07-22T06:35:05;3.47;;;3.17;;
26696;SDS011;14312;52.614;13.496;2023-07-22T06:37:51;4.53;;;3.70;;
26696;SDS011;14312;52.614;13.496;2023-07-22T06:40:37;3.95;;;3.42;;
26696;SDS011;14312;52.614;13.496;2023-07-22T06:43:23;3.30;;;3.00;;
26696;SDS011;14312;52.614;13.496;2023-07-22T06:46:09;3.67;;;3.38;;
26696;SDS011;14312;52.614;13.496;2023-07-22T06:48:54;3.53;;;3.22;;
26696;SDS011;14312;52.614;13.496;2023-07-22T06:51:40;3.63;;;3.33;;
26696;SDS011;14312;52.614;13.496;2023-07-22T06:54:26;3.38;;;3.08;;
26696;SDS011;14312;52.614;13.496;2023-07-22T06:57:13;4.15;;;3.70;;
26696;SDS011;14312;52.614;13.496;2023-07-22T06:59:59;6.00;;;4.43;;
26696;SDS011;14312;52.614;13.496;2023-07-22T07:02:45;5.03;;;4.03;;
26696;SDS011;14312;52.614;13.496;2023-07-22T07:05:31;4.38;;;3.97;;
26696;SDS011;14312;52.614;13.496;2023-07-22T07:08:17;4.30;;;3.70;;
26696;SDS011;14312;52.614;13.496;2023-07-22T07:11:02;4.78;;;4.13;;
26696;SDS011;14312;52.614;13.496;2023-07-22T07:13:48;4.07;;;3.35;;
26696;SDS011;14312;52.614;13.496;2023-07-22T07:16:34;4.25;;;3.70;;
26696;SDS011;14312;52.614;13.496;2023-07-22T07:19:20;4.47;;;3.60;;
26696;SDS011;14312;52.614;13.496;2023-07-22T07:22:06;5.63;;;4.07;;
26696;SDS011;14312;52.614;13.496;2023-07-22T07:24:52;5.75;;;3.72;;
26696;SDS011;14312;52.614;13.496;2023-07-22T07:27:38;3.60;;;3.30;;
26696;SDS011;14312;52.614;13.496;2023-07-22T07:30:24;6.40;;;3.75;;
26696;SDS011;14312;52.614;13.496;2023-07-22T07:33:10;4.78;;;3.83;;
26696;SDS011;14312;52.614;13.496;2023-07-22T07:35:56;4.35;;;3.63;;
26696;SDS011;14312;52.614;13.496;2023-07-22T07:38:42;3.85;;;3.25;;
26696;SDS011;14312;52.614;13.496;2023-07-22T07:41:28;3.67;;;3.28;;
26696;SDS011;14312;52.614;13.496;2023-07-22T07:44:14;5.13;;;4.13;;
26696;SDS011;14312;52.614;13.496;2023-07-22T07:47:00;5.18;;;3.55;;
26696;SDS011;14312;52.614;13.496;2023-07-22T07:49:46;4.00;;;3.60;;
26696;SDS011;14312;52.614;13.496;2023-07-22T07:52:32;4.18;;;3.78;;
26696;SDS011;14312;52.614;13.496;2023-07-22T07:55:18;3.65;;;3.35;;
26696;SDS011;14312;52.614;13.496;2023-07-22T07:58:04;4.85;;;3.70;;
26696;SDS011;14312;52.614;13.496;2023-07-22T08:00:50;4.63;;;3.47;;
26696;SDS011;14312;52.614;13.496;2023-07-22T08:03:36;4.18;;;3.78;;
26696;SDS011;14312;52.614;13.496;2023-07-22T08:06:23;3.63;;;3.33;;
26696;SDS011;14312;52.614;13.496;2023-07-22T08:09:09;4.22;;;3.80;;
26696;SDS011;14312;52.614;13.496;2023-07-22T08:11:56;3.55;;;3.25;;
26696;SDS011;14312;52.614;13.496;2023-07-22T08:14:42;4.10;;;3.70;;
26696;SDS011;14312;52.614;13.496;2023-07-22T08:17:28;4.10;;;3.40;;
26696;SDS011;14312;52.614;13.496;2023-07-22T08:20:14;3.70;;;3.40;;
26696;SDS011;14312;52.614;13.496;2023-07-22T08:23:00;3.88;;;3.47;;
26696;SDS011;14312;52.614;13.496;2023-07-22T08:25:46;4.57;;;3.72;;
26696;SDS011;14312;52.614;13.496;2023-07-22T08:28:32;4.65;;;4.00;;
26696;SDS011;14312;52.614;13.496;2023-07-22T08:31:19;3.80;;;3.35;;
26696;SDS011;14312;52.614;13.496;2023-07-22T08:34:05;4.40;;;3.65;;
26696;SDS011;14312;52.614;13.496;2023-07-22T08:36:51;3.65;;;3.35;;
26696;SDS011;14312;52.614;13.496;2023-07-22T08:39:38;4.13;;;3.60;;
26696;SDS011;14312;52.614;13.496;2023-07-22T08:42:24;3.70;;;3.30;;
26696;SDS011;14312;52.614;13.496;2023-07-22T08:45:13;3.90;;;3.13;;
26696;SDS011;14312;52.614;13.496;2023-07-22T08:48:00;3.40;;;3.10;;
26696;SDS011;14312;52.614;13.496;2023-07-22T08:50:52;3.90;;;3.50;;
26696;SDS011;14312;52.614;13.496;2023-07-22T08:53:40;4.32;;;3.47;;
26696;SDS011;14312;52.614;13.496;2023-07-22T08:56:27;3.80;;;3.10;;
26696;SDS011;14312;52.614;13.496;2023-07-22T08:59:14;3.65;;;3.35;;
26696;SDS011;14312;52.614;13.496;2023-07-22T09:02:01;4.28;;;3.83;;
26696;SDS011;14312;52.614;13.496;2023-07-22T09:04:47;3.83;;;3.42;;
26696;SDS011;14312;52.614;13.496;2023-07-22T09:07:33;3.72;;;3.42;;
26696;SDS011;14312;52.614;13.496;2023-07-22T09:10:19;3.28;;;3.03;;
26696;SDS011;14312;52.614;13.496;2023-07-22T09:13:06;3.47;;;3.17;;
26696;SDS011;14312;52.614;13.496;2023-07-22T09:15:53;5.10;;;3.75;;
26696;SDS011;14312;52.614;13.496;2023-07-22T09:18:42;3.10;;;2.80;;
26696;SDS011;14312;52.614;13.496;2023-07-22T09:21:28;3.42;;;3.13;;
26696;SDS011;14312;52.614;13.496;2023-07-22T09:24:21;3.30;;;3.00;;
26696;SDS011;14312;52.614;13.496;2023-07-22T09:27:08;3.80;;;3.40;;
26696;SDS011;14312;52.614;13.496;2023-07-22T09:29:54;3.25;;;2.95;;
26696;SDS011;14312;52.614;13.496;2023-07-22T09:32:40;3.05;;;2.72;;
26696;SDS011;14312;52.614;13.496;2023-07-22T09:35:26;2.92;;;2.65;;
26696;SDS011;14312;52.614;13.496;2023-07-22T09:38:14;3.58;;;3.28;;
26696;SDS011;14312;52.614;13.496;2023-07-22T09:41:08;3.38;;;3.08;;
26696;SDS011;14312;52.614;13.496;2023-07-22T09:44:02;3.45;;;3.13;;
26696;SDS011;14312;52.614;13.496;2023-07-22T09:46:49;3.08;;;2.78;;
26696;SDS011;14312;52.614;13.496;2023-07-22T09:49:39;2.92;;;2.65;;
26696;SDS011;14312;52.614;13.496;2023-07-22T09:52:26;2.90;;;2.60;;
26696;SDS011;14312;52.614;13.496;2023-07-22T09:55:14;3.10;;;2.60;;
26696;SDS011;14312;52.614;13.496;2023-07-22T09:58:03;2.60;;;2.40;;
26696;SDS011;14312;52.614;13.496;2023-07-22T10:00:55;2.72;;;2.53;;
26696;SDS011;14312;52.614;13.496;2023-07-22T10:03:40;2.83;;;2.63;;
26696;SDS011;14312;52.614;13.496;2023-07-22T10:06:28;3.25;;;2.95;;
26696;SDS011;14312;52.614;13.496;2023-07-22T10:09:15;3.15;;;2.17;;
26696;SDS011;14312;52.614;13.496;2023-07-22T10:12:02;2.85;;;2.63;;
26696;SDS011;14312;52.614;13.496;2023-07-22T10:14:49;2.40;;;2.20;;
26696;SDS011;14312;52.614;13.496;2023-07-22T10:17:37;2.63;;;2.10;;
26696;SDS011;14312;52.614;13.496;2023-07-22T10:20:25;2.70;;;1.95;;
26696;SDS011;14312;52.614;13.496;2023-07-22T10:23:11;2.17;;;1.98;;
26696;SDS011;14312;52.614;13.496;2023-07-22T10:26:01;2.15;;;1.90;;
26696;SDS011;14312;52.614;13.496;2023-07-22T10:28:48;3.00;;;2.20;;
26696;SDS011;14312;52.614;13.496;2023-07-22T10:31:34;1.98;;;1.83;;
26696;SDS011;14312;52.614;13.496;2023-07-22T10:34:21;2.10;;;1.90;;
26696;SDS011;14312;52.614;13.496;2023-07-22T10:37:09;2.13;;;1.90;;
26696;SDS011;14312;52.614;13.496;2023-07-22T10:40:00;2.55;;;2.22;;
26696;SDS011;14312;52.614;13.496;2023-07-22T10:42:54;2.20;;;2.00;;
26696;SDS011;14312;52.614;13.496;2023-07-22T10:45:49;2.30;;;2.10;;
26696;SDS011;14312;52.614;13.496;2023-07-22T10:48:38;3.20;;;1.98;;
26696;SDS011;14312;52.614;13.496;2023-07-22T10:51:24;3.88;;;2.20;;
26696;SDS011;14312;52.614;13.496;2023-07-22T10:54:31;2.60;;;2.15;;
26696;SDS011;14312;52.614;13.496;2023-07-22T10:57:23;2.38;;;2.17;;
26696;SDS011;14312;52.614;13.496;2023-07-22T11:00:17;2.75;;;2.45;;
26696;SDS011;14312;52.614;13.496;2023-07-22T11:03:12;2.00;;;1.90;;
26696;SDS011;14312;52.614;13.496;2023-07-22T11:05:59;2.40;;;2.20;;
26696;SDS011;14312;52.614;13.496;2023-07-22T11:08:46;2.30;;;2.08;;
26696;SDS011;14312;52.614;13.496;2023-07-22T11:11:39;2.50;;;2.30;;
26696;SDS011;14312;52.614;13.496;2023-07-22T11:14:30;2.17;;;1.98;;
26696;SDS011;14312;52.614;13.496;2023-07-22T11:17:30;2.60;;;2.05;;
26696;SDS011;14312;52.614;13.496;2023-07-22T11:20:17;3.38;;;2.13;;
26696;SDS011;14312;52.614;13.496;2023-07-22T11:23:03;2.50;;;2.30;;
26696;SDS011;14312;52.614;13.496;2023-07-22T11:25:49;2.45;;;2.25;;
26696;SDS011;14312;52.614;13.496;2023-07-22T11:28:35;3.30;;;2.42;;
26696;SDS011;14312;52.614;13.496;2023-07-22T11:31:21;2.63;;;2.42;;
26696;SDS011;14312;52.614;13.496;2023-07-22T11:34:07;4.15;;;2.30;;
26696;SDS011;14312;52.614;13.496;2023-07-22T11:36:53;2.33;;;2.13;;
26696;SDS011;14312;52.614;13.496;2023-07-22T11:39:41;3.20;;;2.50;;
26696;SDS011;14312;52.614;13.496;2023-07-22T11:42:28;2.60;;;2.40;;
26696;SDS011;14312;52.614;13.496;2023-07-22T11:45:15;2.33;;;2.13;;
26696;SDS011;14312;52.614;13.496;2023-07-22T11:48:01;2.40;;;2.20;;
26696;SDS011;14312;52.614;13.496;2023-07-22T11:50:47;2.50;;;2.30;;
26696;SDS011;14312;52.614;13.496;2023-07-22T11:53:33;2.65;;;2.45;;
26696;SDS011;14312;52.614;13.496;2023-07-22T11:56:22;2.33;;;2.13;;
26696;SDS011;14312;52.614;13.496;2023-07-22T11:59:12;2.80;;;2.60;;
26696;SDS011;14312;52.614;13.496;2023-07-22T12:01:59;2.80;;;2.60;;
26696;SDS011;14312;52.614;13.496;2023-07-22T12:07:38;3.38;;;2.20;;
26696;SDS011;14312;52.614;13.496;2023-07-22T12:10:24;2.85;;;2.58;;
26696;SDS011;14312;52.614;13.496;2023-07-22T12:13:10;2.63;;;2.42;;
26696;SDS011;14312;52.614;13.496;2023-07-22T12:16:02;3.63;;;2.90;;
26696;SDS011;14312;52.614;13.496;2023-07-22T12:18:54;3.30;;;2.92;;
26696;SDS011;14312;52.614;13.496;2023-07-22T12:21:41;2.63;;;2.40;;
26696;SDS011;14312;52.614;13.496;2023-07-22T12:24:28;3.00;;;2.70;;
26696;SDS011;14312;52.614;13.496;2023-07-22T12:27:15;3.15;;;2.88;;
26696;SDS011;14312;52.614;13.496;2023-07-22T12:30:00;3.03;;;2.72;;
26696;SDS011;14312;52.614;13.496;2023-07-22T12:32:47;3.00;;;2.80;;
26696;SDS011;14312;52.614;13.496;2023-07-22T12:35:33;3.08;;;2.78;;
26696;SDS011;14312;52.614;13.496;2023-07-22T12:38:19;3.55;;;2.80;;
26696;SDS011;14312;52.614;13.496;2023-07-22T12:41:05;2.70;;;2.50;;
26696;SDS011;14312;52.614;13.496;2023-07-22T12:43:51;2.83;;;2.63;;
26696;SDS011;14312;52.614;13.496;2023-07-22T12:46:37;2.97;;;2.75;;
26696;SDS011;14312;52.614;13.496;2023-07-22T12:49:23;3.30;;;3.03;;
26696;SDS011;14312;52.614;13.496;2023-07-22T12:52:09;2.78;;;2.58;;
26696;SDS011;14312;52.614;13.496;2023-07-22T12:54:55;2.53;;;2.17;;
26696;SDS011;14312;52.614;13.496;2023-07-22T12:57:41;2.65;;;2.45;;
26696;SDS011;14312;52.614;13.496;2023-07-22T13:00:27;2.60;;;2.40;;
26696;SDS011;14312;52.614;13.496;2023-07-22T13:03:14;2.50;;;2.30;;
26696;SDS011;14312;52.614;13.496;2023-07-22T13:06:00;2.80;;;2.60;;
26696;SDS011;14312;52.614;13.496;2023-07-22T13:08:46;2.80;;;2.60;;
26696;SDS011;14312;52.614;13.496;2023-07-22T13:11:31;3.20;;;2.58;;
26696;SDS011;14312;52.614;13.496;2023-07-22T13:14:17;2.65;;;2.45;;
26696;SDS011;14312;52.614;13.496;2023-07-22T13:17:04;2.97;;;2.50;;
26696;SDS011;14312;52.614;13.496;2023-07-22T13:19:50;2.67;;;2.47;;
26696;SDS011;14312;52.614;13.496;2023-07-22T13:22:36;2.85;;;2.63;;
26696;SDS011;14312;52.614;13.496;2023-07-22T13:25:22;2.80;;;2.60;;
26696;SDS011;14312;52.614;13.496;2023-07-22T13:28:08;3.20;;;2.90;;
26696;SDS011;14312;52.614;13.496;2023-07-22T13:30:53;3.95;;;3.05;;
26696;SDS011;14312;52.614;13.496;2023-07-22T13:33:39;3.33;;;3.03;;
26696;SDS011;14312;52.614;13.496;2023-07-22T13:36:25;3.55;;;3.25;;
26696;SDS011;14312;52.614;13.496;2023-07-22T13:39:11;3.20;;;3.00;;
26696;SDS011;14312;52.614;13.496;2023-07-22T13:41:57;5.50;;;3.50;;
26696;SDS011;14312;52.614;13.496;2023-07-22T13:44:43;4.15;;;3.15;;
26696;SDS011;14312;52.614;13.496;2023-07-22T13:47:29;3.15;;;2.88;;
26696;SDS011;14312;52.614;13.496;2023-07-22T13:50:14;2.97;;;2.63;;
26696;SDS011;14312;52.614;13.496;2023-07-22T13:53:01;3.03;;;2.72;;
26696;SDS011;14312;52.614;13.496;2023-07-22T13:55:46;3.17;;;2.88;;
26696;SDS011;14312;52.614;13.496;2023-07-22T13:58:32;3.08;;;2.83;;
26696;SDS011;14312;52.614;13.496;2023-07-22T14:01:18;3.60;;;3.30;;
26696;SDS011;14312;52.614;13.496;2023-07-22T14:04:04;2.95;;;2.70;;
26696;SDS011;14312;52.614;13.496;2023-07-22T14:06:50;4.40;;;3.08;;
26696;SDS011;14312;52.614;13.496;2023-07-22T14:09:36;2.75;;;2.55;;
26696;SDS011;14312;52.614;13.496;2023-07-22T14:12:22;3.15;;;2.95;;
26696;SDS011;14312;52.614;13.496;2023-07-22T14:15:08;2.45;;;2.25;;
26696;SDS011;14312;52.614;13.496;2023-07-22T14:17:54;2.83;;;2.63;;
26696;SDS011;14312;52.614;13.496;2023-07-22T14:20:40;3.17;;;2.85;;
26696;SDS011;14312;52.614;13.496;2023-07-22T14:23:25;2.90;;;2.60;;
26696;SDS011;14312;52.614;13.496;2023-07-22T14:26:11;2.90;;;2.70;;
26696;SDS011;14312;52.614;13.496;2023-07-22T14:28:57;3.30;;;3.00;;
26696;SDS011;14312;52.614;13.496;2023-07-22T14:31:43;2.95;;;2.75;;
26696;SDS011;14312;52.614;13.496;2023-07-22T14:34:29;2.83;;;2.63;;
26696;SDS011;14312;52.614;13.496;2023-07-22T14:37:15;3.05;;;2.85;;
26696;SDS011;14312;52.614;13.496;2023-07-22T14:40:01;3.03;;;2.80;;
26696;SDS011;14312;52.614;13.496;2023-07-22T14:42:49;2.50;;;2.30;;
26696;SDS011;14312;52.614;13.496;2023-07-22T14:45:35;3.17;;;2.88;;
26696;SDS011;14312;52.614;13.496;2023-07-22T14:48:20;2.70;;;2.50;;
26696;SDS011;14312;52.614;13.496;2023-07-22T14:51:06;3.20;;;2.92;;
26696;SDS011;14312;52.614;13.496;2023-07-22T14:53:52;3.05;;;2.85;;
26696;SDS011;14312;52.614;13.496;2023-07-22T14:56:38;3.67;;;3.33;;
26696;SDS011;14312;52.614;13.496;2023-07-22T14:59:24;3.03;;;2.72;;
26696;SDS011;14312;52.614;13.496;2023-07-22T15:02:12;3.17;;;2.90;;
26696;SDS011;14312;52.614;13.496;2023-07-22T15:04:58;2.80;;;2.58;;
26696;SDS011;14312;52.614;13.496;2023-07-22T15:07:43;2.95;;;2.75;;
26696;SDS011;14312;52.614;13.496;2023-07-22T15:10:29;4.78;;;4.30;;
26696;SDS011;14312;52.614;13.496;2023-07-22T15:13:15;4.90;;;4.50;;
26696;SDS011;14312;52.614;13.496;2023-07-22T15:16:01;3.40;;;3.10;;
26696;SDS011;14312;52.614;13.496;2023-07-22T15:18:48;3.67;;;3.38;;
26696;SDS011;14312;52.614;13.496;2023-07-22T15:21:34;3.63;;;3.33;;
26696;SDS011;14312;52.614;13.496;2023-07-22T15:24:20;3.53;;;3.22;;
26696;SDS011;14312;52.614;13.496;2023-07-22T15:27:06;3.35;;;3.03;;
26696;SDS011;14312;52.614;13.496;2023-07-22T15:29:52;3.08;;;2.80;;
26696;SDS011;14312;52.614;13.496;2023-07-22T15:32:38;3.00;;;2.78;;
26696;SDS011;14312;52.614;13.496;2023-07-22T15:35:24;3.00;;;2.80;;
26696;SDS011;14312;52.614;13.496;2023-07-22T15:38:09;2.60;;;2.40;;
26696;SDS011;14312;52.614;13.496;2023-07-22T15:40:55;2.97;;;2.78;;
26696;SDS011;14312;52.614;13.496;2023-07-22T15:43:41;3.60;;;3.30;;
26696;SDS011;14312;52.614;13.496;2023-07-22T15:46:27;3.15;;;2.85;;
26696;SDS011;14312;52.614;13.496;2023-07-22T15:49:17;3.17;;;2.88;;
26696;SDS011;14312;52.614;13.496;2023-07-22T15:52:05;2.92;;;2.72;;
26696;SDS011;14312;52.614;13.496;2023-07-22T15:54:51;3.28;;;2.97;;
26696;SDS011;14312;52.614;13.496;2023-07-22T15:57:37;3.50;;;3.20;;
26696;SDS011;14312;52.614;13.496;2023-07-22T16:00:23;3.03;;;2.83;;
26696;SDS011;14312;52.614;13.496;2023-07-22T16:03:09;3.22;;;2.92;;
26696;SDS011;14312;52.614;13.496;2023-07-22T16:05:56;3.60;;;3.30;;
26696;SDS011;14312;52.614;13.496;2023-07-22T16:08:42;3.63;;;3.33;;
26696;SDS011;14312;52.614;13.496;2023-07-22T16:11:28;3.25;;;3.05;;
26696;SDS011;14312;52.614;13.496;2023-07-22T16:14:14;3.20;;;3.00;;
26696;SDS011;14312;52.614;13.496;2023-07-22T16:17:00;2.97;;;2.70;;
26696;SDS011;14312;52.614;13.496;2023-07-22T16:19:46;3.00;;;2.80;;
26696;SDS011;14312;52.614;13.496;2023-07-22T16:22:32;2.95;;;2.60;;
26696;SDS011;14312;52.614;13.496;2023-07-22T16:25:18;2.75;;;2.55;;
26696;SDS011;14312;52.614;13.496;2023-07-22T16:28:03;3.13;;;2.83;;
26696;SDS011;14312;52.614;13.496;2023-07-22T16:30:49;3.22;;;2.70;;